createdAt,value
2022-08-28T00:02:03.503Z,65.23
2022-08-28T00:04:30.521Z,65.33
2022-08-28T00:06:57.738Z,65.25
2022-08-28T00:09:24.657Z,65.40
2022-08-28T00:11:51.543Z,65.29
2022-08-28T00:14:21.312Z,65.53
2022-08-28T00:16:49.681Z,65.55
2022-08-28T00:19:20.879Z,65.56
2022-08-28T00:21:49.600Z,65.75
2022-08-28T00:24:17.594Z,65.80
2022-08-28T00:27:03.963Z,65.87
2022-08-28T00:29:31.766Z,66.00
2022-08-28T00:32:01.920Z,66.11
2022-08-28T00:34:33.051Z,66.22
2022-08-28T00:37:01.112Z,66.48
2022-08-28T00:39:28.279Z,66.55
2022-08-28T00:41:57.830Z,66.64
2022-08-28T00:44:27.827Z,66.73
2022-08-28T00:46:57.550Z,66.77
2022-08-28T00:49:30.401Z,66.77
2022-08-28T00:52:06.108Z,66.93
2022-08-28T00:54:37.968Z,67.17
2022-08-28T00:57:10.483Z,67.44
2022-08-28T00:59:38.880Z,67.41
2022-08-28T01:02:07.744Z,67.42
2022-08-28T01:04:36.490Z,67.37
2022-08-28T01:07:09.290Z,67.48
2022-08-28T01:09:40.659Z,67.62
2022-08-28T01:12:14.578Z,68.20
2022-08-28T01:14:46.062Z,67.82
2022-08-28T01:17:16.458Z,67.72
2022-08-28T01:19:56.590Z,68.17
2022-08-28T01:22:23.344Z,68.10
2022-08-28T01:24:53.279Z,68.15
2022-08-28T01:27:20.587Z,68.10
2022-08-28T01:29:51.370Z,68.67
2022-08-28T01:32:54.087Z,68.96
2022-08-28T01:35:26.633Z,68.66
2022-08-28T01:37:56.237Z,68.94
2022-08-28T01:40:32.485Z,69.11
2022-08-28T01:43:12.946Z,69.02
2022-08-28T01:45:48.442Z,69.00
2022-08-28T01:48:16.720Z,69.46
2022-08-28T01:50:44.450Z,69.69
2022-08-28T01:53:16.454Z,69.64
2022-08-28T01:55:44.684Z,70.01
2022-08-28T01:58:12.865Z,70.07
2022-08-28T02:00:40.440Z,70.24
2022-08-28T02:03:07.240Z,70.36
2022-08-28T02:05:35.160Z,70.44
2022-08-28T02:08:04.810Z,70.79
2022-08-28T02:10:35.513Z,70.97
2022-08-28T02:13:03.931Z,71.34
2022-08-28T02:15:33.282Z,71.30
2022-08-28T02:18:00.681Z,71.74
2022-08-28T02:20:29.519Z,71.89
2022-08-28T02:22:58.391Z,71.94
2022-08-28T02:25:27.339Z,72.47
2022-08-28T02:27:55.155Z,72.51
2022-08-28T02:30:22.527Z,72.61
2022-08-28T02:32:50.806Z,72.60
2022-08-28T02:35:19.740Z,72.97
2022-08-28T02:37:48.075Z,73.08
2022-08-28T02:40:18.834Z,73.19
2022-08-28T02:42:46.423Z,73.54
2022-08-28T02:45:15.183Z,73.72
2022-08-28T02:47:44.600Z,73.93
2022-08-28T02:50:15.325Z,73.82
2022-08-28T02:52:42.936Z,73.54
2022-08-28T02:55:13.260Z,73.97
2022-08-28T02:57:40.438Z,74.29
2022-08-28T03:00:15.183Z,74.38
2022-08-28T03:02:43.189Z,74.34
2022-08-28T03:05:10.695Z,74.47
2022-08-28T03:07:37.665Z,74.66
2022-08-28T03:10:07.313Z,74.94
2022-08-28T03:12:35.236Z,74.91
2022-08-28T03:15:02.731Z,74.70
2022-08-28T03:17:29.638Z,74.78
2022-08-28T03:19:56.599Z,75.55
2022-08-28T03:22:43.460Z,75.51
2022-08-28T03:25:12.662Z,75.46
2022-08-28T03:27:39.507Z,75.60
2022-08-28T03:30:08.470Z,75.74
2022-08-28T03:32:36.493Z,75.50
2022-08-28T03:35:05.656Z,75.50
2022-08-28T03:37:32.717Z,75.53
2022-08-28T03:40:00.772Z,75.73
2022-08-28T03:42:27.778Z,75.75
2022-08-28T03:44:54.778Z,76.17
2022-08-28T03:47:22.708Z,76.35
2022-08-28T03:49:56.702Z,76.23
2022-08-28T03:52:24.427Z,76.44
2022-08-28T03:54:52.381Z,76.06
2022-08-28T03:57:22.308Z,76.06
2022-08-28T03:59:52.354Z,76.15
2022-08-28T04:02:20.823Z,76.84
2022-08-28T04:04:49.977Z,76.79
2022-08-28T04:07:19.141Z,76.47
2022-08-28T04:09:47.282Z,76.88
2022-08-28T04:12:15.339Z,76.95
2022-08-28T04:14:42.337Z,76.76
2022-08-28T04:17:10.176Z,76.92
2022-08-28T04:19:38.183Z,77.03
2022-08-28T04:22:05.315Z,76.85
2022-08-28T04:24:32.203Z,76.81
2022-08-28T04:26:59.045Z,77.18
2022-08-28T04:29:26.251Z,77.04
2022-08-28T04:31:53.275Z,77.08
2022-08-28T04:34:20.370Z,77.18
2022-08-28T04:36:51.275Z,77.38
2022-08-28T04:39:18.327Z,77.47
2022-08-28T04:41:45.300Z,77.86
2022-08-28T04:44:12.374Z,77.91
2022-08-28T04:46:39.321Z,77.58
2022-08-28T04:49:06.244Z,78.01
2022-08-28T04:51:33.333Z,78.15
2022-08-28T04:54:02.176Z,77.83
2022-08-28T04:56:29.812Z,77.82
2022-08-28T04:58:56.683Z,77.91
2022-08-28T05:01:24.910Z,77.56
2022-08-28T05:03:59.767Z,77.93
2022-08-28T05:06:30.156Z,78.32
2022-08-28T05:08:59.367Z,77.85
2022-08-28T05:11:34.147Z,78.06
2022-08-28T05:14:04.920Z,77.96
2022-08-28T05:16:33.307Z,77.89
2022-08-28T05:19:02.342Z,77.87
2022-08-28T05:21:29.348Z,78.28
2022-08-28T05:23:58.342Z,78.43
2022-08-28T05:26:26.818Z,78.57
2022-08-28T05:28:56.340Z,78.44
2022-08-28T05:31:25.957Z,78.60
2022-08-28T05:33:54.109Z,78.39
2022-08-28T05:36:26.528Z,77.99
2022-08-28T05:39:04.718Z,78.54
2022-08-28T05:41:33.308Z,78.48
2022-08-28T05:44:03.881Z,78.22
2022-08-28T05:46:31.536Z,78.06
2022-08-28T05:49:00.664Z,78.27
2022-08-28T05:51:28.606Z,78.27
2022-08-28T05:53:57.973Z,78.09
2022-08-28T05:56:30.094Z,78.06
2022-08-28T05:58:59.378Z,77.73
2022-08-28T06:01:30.092Z,77.80
2022-08-28T06:04:11.353Z,77.72
2022-08-28T06:06:39.909Z,77.83
2022-08-28T06:09:21.829Z,77.76
2022-08-28T06:11:51.130Z,77.61
2022-08-28T06:14:20.903Z,77.50
2022-08-28T06:16:53.114Z,77.29
2022-08-28T06:19:23.026Z,77.40
2022-08-28T06:21:54.798Z,77.29
2022-08-28T06:24:21.999Z,77.15
2022-08-28T06:26:48.837Z,77.08
2022-08-28T06:29:18.505Z,76.94
2022-08-28T06:31:53.321Z,76.89
2022-08-28T06:34:20.850Z,76.94
2022-08-28T06:36:53.147Z,77.15
2022-08-28T06:39:21.222Z,77.00
2022-08-28T06:41:48.166Z,76.90
2022-08-28T06:44:20.873Z,76.97
2022-08-28T06:46:51.378Z,77.05
2022-08-28T06:49:18.874Z,76.78
2022-08-28T06:51:45.749Z,77.05
2022-08-28T06:54:12.608Z,77.28
2022-08-28T06:56:39.503Z,77.35
2022-08-28T06:59:06.594Z,77.33
2022-08-28T07:01:37.098Z,77.37
2022-08-28T07:04:10.789Z,77.37
2022-08-28T07:06:41.415Z,77.01
2022-08-28T07:09:11.447Z,76.39
2022-08-28T07:11:39.687Z,75.92
2022-08-28T07:14:07.658Z,76.02
2022-08-28T07:16:38.557Z,75.71
2022-08-28T07:19:07.941Z,75.58
2022-08-28T07:21:42.019Z,75.27
2022-08-28T07:24:12.607Z,74.80
2022-08-28T07:26:41.305Z,74.18
2022-08-28T07:29:10.342Z,73.93
2022-08-28T07:31:45.093Z,73.13
2022-08-28T07:34:13.782Z,72.39
2022-08-28T07:36:42.318Z,71.30
2022-08-28T07:39:11.408Z,70.86
2022-08-28T07:41:40.466Z,70.16
2022-08-28T07:44:27.171Z,69.36
2022-08-28T07:47:02.471Z,68.60
2022-08-28T07:49:29.343Z,67.38
2022-08-28T07:51:56.674Z,66.37
2022-08-28T07:54:24.368Z,66.10
2022-08-28T07:56:52.797Z,65.35
2022-08-28T07:59:20.372Z,64.65
2022-08-28T08:01:51.669Z,63.97
2022-08-28T08:04:21.043Z,63.31
2022-08-28T08:06:48.776Z,63.20
2022-08-28T08:09:19.263Z,62.35
2022-08-28T08:11:49.166Z,61.68
2022-08-28T08:14:17.557Z,61.34
2022-08-28T08:16:47.643Z,60.71
2022-08-28T08:19:17.298Z,60.82
2022-08-28T08:21:55.063Z,60.26
2022-08-28T08:24:26.431Z,59.76
2022-08-28T08:26:59.877Z,58.94
2022-08-28T08:29:31.844Z,58.07
2022-08-28T08:32:06.241Z,57.65
2022-08-28T08:34:36.762Z,57.30
2022-08-28T08:37:05.775Z,57.36
2022-08-28T08:39:35.141Z,57.36
2022-08-28T08:42:05.626Z,56.78
2022-08-28T08:44:47.685Z,56.43
2022-08-28T08:47:29.658Z,56.21
2022-08-28T08:50:26.850Z,56.52
2022-08-28T08:53:21.756Z,55.52
2022-08-28T08:55:51.458Z,55.26
2022-08-28T08:58:42.503Z,53.68
2022-08-28T09:01:34.564Z,54.41
2022-08-28T09:04:16.802Z,54.11
2022-08-28T09:06:57.244Z,54.16
2022-08-28T09:09:26.945Z,53.95
2022-08-28T09:11:57.510Z,54.35
2022-08-28T09:14:37.805Z,54.00
2022-08-28T09:17:06.926Z,54.32
2022-08-28T09:19:34.605Z,53.83
2022-08-28T09:22:02.282Z,54.07
2022-08-28T09:24:38.979Z,54.01
2022-08-28T09:27:22.293Z,54.40
2022-08-28T09:30:08.070Z,54.22
2022-08-28T09:32:44.418Z,53.94
2022-08-28T09:35:14.227Z,53.78
2022-08-28T09:37:44.148Z,53.49
2022-08-28T09:40:25.028Z,53.72
2022-08-28T09:43:29.066Z,53.66
2022-08-28T09:46:29.351Z,54.13
2022-08-28T09:49:14.620Z,53.56
2022-08-28T09:51:42.213Z,53.78
2022-08-28T09:54:22.191Z,53.99
2022-08-28T09:56:50.783Z,53.51
2022-08-28T09:59:21.507Z,52.95
2022-08-28T10:02:18.039Z,52.81
2022-08-28T10:05:05.535Z,52.75
2022-08-28T10:07:58.065Z,52.73
2022-08-28T10:10:49.574Z,52.76
2022-08-28T10:13:52.410Z,52.23
2022-08-28T10:16:41.749Z,51.56
2022-08-28T10:19:41.232Z,51.03
2022-08-28T10:22:22.308Z,51.35
2022-08-28T10:25:06.651Z,51.28
2022-08-28T10:27:53.375Z,51.62
2022-08-28T10:30:24.530Z,51.18
2022-08-28T10:32:57.298Z,50.53
2022-08-28T10:35:47.903Z,49.87
2022-08-28T10:38:18.791Z,49.61
2022-08-28T10:40:59.994Z,49.40
2022-08-28T10:43:36.615Z,49.49
2022-08-28T10:46:23.134Z,49.62
2022-08-28T10:49:05.835Z,49.04
2022-08-28T10:51:49.957Z,48.23
2022-08-28T10:54:26.818Z,48.56
2022-08-28T10:57:00.801Z,47.65
2022-08-28T10:59:32.194Z,48.18
2022-08-28T11:02:01.054Z,48.37
2022-08-28T11:04:29.600Z,47.54
2022-08-28T11:07:04.091Z,47.25
2022-08-28T11:09:43.240Z,47.63
2022-08-28T11:12:37.254Z,47.71
2022-08-28T11:15:36.440Z,46.71
2022-08-28T11:18:42.119Z,47.69
2022-08-28T11:21:35.952Z,47.36
2022-08-28T11:24:43.715Z,46.85
2022-08-28T11:27:33.439Z,46.63
2022-08-28T11:30:09.832Z,46.75
2022-08-28T11:32:51.596Z,45.86
2022-08-28T11:35:21.816Z,45.71
2022-08-28T11:37:51.905Z,45.91
2022-08-28T11:40:32.757Z,45.71
2022-08-28T11:43:20.883Z,45.44
2022-08-28T11:45:50.604Z,45.58
2022-08-28T11:48:23.477Z,46.02
2022-08-28T11:51:04.694Z,45.51
2022-08-28T11:53:55.330Z,45.00
2022-08-28T11:56:59.702Z,44.48
2022-08-28T11:59:50.582Z,44.83
2022-08-28T12:02:39.304Z,44.71
2022-08-28T12:05:12.000Z,44.15
2022-08-28T12:07:48.064Z,44.33
2022-08-28T12:10:20.880Z,44.34
2022-08-28T12:12:47.678Z,44.74
2022-08-28T12:15:42.903Z,44.62
2022-08-28T12:18:12.763Z,43.26
2022-08-28T12:20:52.203Z,43.05
2022-08-28T12:23:46.027Z,42.92
2022-08-28T12:26:44.025Z,42.69
2022-08-28T12:29:35.610Z,43.49
2022-08-28T12:32:33.207Z,42.15
2022-08-28T12:34:59.991Z,42.44
2022-08-28T12:37:54.630Z,41.89
2022-08-28T12:40:40.056Z,41.01
2022-08-28T12:43:09.265Z,38.77
2022-08-28T12:46:01.124Z,40.94
2022-08-28T12:48:32.929Z,41.17
2022-08-28T12:51:15.370Z,41.66
2022-08-28T12:53:46.625Z,41.13
2022-08-28T12:56:18.130Z,41.34
2022-08-28T12:58:47.232Z,41.19
2022-08-28T13:01:16.038Z,41.11
2022-08-28T13:03:51.531Z,40.62
2022-08-28T13:06:27.116Z,40.78
2022-08-28T13:09:02.918Z,40.13
2022-08-28T13:11:35.683Z,40.54
2022-08-28T13:14:04.456Z,40.76
2022-08-28T13:16:45.545Z,40.80
2022-08-28T13:19:29.903Z,40.92
2022-08-28T13:22:00.723Z,40.39
2022-08-28T13:24:48.950Z,39.58
2022-08-28T13:27:23.879Z,39.92
2022-08-28T13:30:16.807Z,39.87
2022-08-28T13:32:58.440Z,39.70
2022-08-28T13:35:25.184Z,40.00
2022-08-28T13:37:56.431Z,39.65
2022-08-28T13:40:56.214Z,40.38
2022-08-28T13:43:18.822Z,40.11
2022-08-28T13:45:48.983Z,40.26
2022-08-28T13:48:20.318Z,38.96
2022-08-28T13:50:58.159Z,38.79
2022-08-28T13:53:25.450Z,38.92
2022-08-28T13:55:52.319Z,39.14
2022-08-28T13:58:19.475Z,39.61
2022-08-28T14:00:49.706Z,39.52
2022-08-28T14:03:35.528Z,39.04
2022-08-28T14:06:11.759Z,38.43
2022-08-28T14:08:44.219Z,38.94
2022-08-28T14:11:13.416Z,38.73
2022-08-28T14:13:47.724Z,38.35
2022-08-28T14:16:24.463Z,38.84
2022-08-28T14:18:53.024Z,38.26
2022-08-28T14:21:21.008Z,38.23
2022-08-28T14:23:48.019Z,37.84
2022-08-28T14:26:14.855Z,38.04
2022-08-28T14:28:42.488Z,37.88
2022-08-28T14:31:14.239Z,38.12
2022-08-28T14:33:42.487Z,38.25
2022-08-28T14:36:21.323Z,38.26
2022-08-28T14:38:52.701Z,38.00
2022-08-28T14:41:23.283Z,37.91
2022-08-28T14:43:50.164Z,37.68
2022-08-28T14:46:19.684Z,37.70
2022-08-28T14:48:48.155Z,37.73
2022-08-28T14:51:16.870Z,36.89
2022-08-28T14:53:44.811Z,37.09
2022-08-28T14:56:12.323Z,36.70
2022-08-28T14:58:39.537Z,37.18
2022-08-28T15:01:06.898Z,37.25
2022-08-28T15:03:34.407Z,37.19
2022-08-28T15:06:09.527Z,37.26
2022-08-28T15:08:37.147Z,37.56
2022-08-28T15:11:09.824Z,37.65
2022-08-28T15:13:36.782Z,37.65
2022-08-28T15:16:14.638Z,37.61
2022-08-28T15:18:43.969Z,37.63
2022-08-28T15:21:35.773Z,38.18
2022-08-28T15:24:04.845Z,38.63
2022-08-28T15:26:34.430Z,38.64
2022-08-28T15:29:04.438Z,38.39
2022-08-28T15:31:35.322Z,38.10
2022-08-28T15:34:13.693Z,38.04
2022-08-28T15:36:43.039Z,38.55
2022-08-28T15:39:29.729Z,39.13
2022-08-28T15:41:57.598Z,39.35
2022-08-28T15:44:24.803Z,39.81
2022-08-28T15:46:59.499Z,39.67
2022-08-28T15:49:30.315Z,39.55
2022-08-28T15:51:59.299Z,38.88
2022-08-28T15:54:26.198Z,39.20
2022-08-28T15:56:54.049Z,39.20
2022-08-28T15:59:23.722Z,39.16
2022-08-28T16:01:51.591Z,39.38
2022-08-28T16:04:18.449Z,39.28
2022-08-28T16:06:46.303Z,39.58
2022-08-28T16:09:13.548Z,39.59
2022-08-28T16:11:42.623Z,39.40
2022-08-28T16:14:11.154Z,39.62
2022-08-28T16:16:38.182Z,39.13
2022-08-28T16:19:06.618Z,38.96
2022-08-28T16:21:33.849Z,39.17
2022-08-28T16:24:01.057Z,39.34
2022-08-28T16:26:29.767Z,39.23
2022-08-28T16:28:56.974Z,39.14
2022-08-28T16:31:24.170Z,39.23
2022-08-28T16:33:51.223Z,39.40
2022-08-28T16:36:18.783Z,39.66
2022-08-28T16:38:49.708Z,39.79
2022-08-28T16:41:27.553Z,39.66
2022-08-28T16:43:55.492Z,39.70
2022-08-28T16:46:25.597Z,39.74
2022-08-28T16:48:54.027Z,39.70
2022-08-28T16:51:21.883Z,40.25
2022-08-28T16:53:48.759Z,40.35
2022-08-28T16:56:18.090Z,40.61
2022-08-28T16:58:45.858Z,40.84
2022-08-28T17:01:13.905Z,40.85
2022-08-28T17:03:42.895Z,40.69
2022-08-28T17:06:25.863Z,41.13
2022-08-28T17:08:56.988Z,41.26
2022-08-28T17:11:27.077Z,41.25
2022-08-28T17:13:55.488Z,41.13
2022-08-28T17:16:24.202Z,41.41
2022-08-28T17:18:52.568Z,41.27
2022-08-28T17:21:40.273Z,41.51
2022-08-28T17:24:14.587Z,41.67
2022-08-28T17:26:43.840Z,41.59
2022-08-28T17:29:11.203Z,41.85
2022-08-28T17:31:38.891Z,42.33
2022-08-28T17:34:07.556Z,42.39
2022-08-28T17:36:37.129Z,42.68
2022-08-28T17:39:08.259Z,42.66
2022-08-28T17:41:36.167Z,43.02
2022-08-28T17:44:05.351Z,43.24
2022-08-28T17:46:37.444Z,43.63
2022-08-28T17:49:07.296Z,43.61
2022-08-28T17:51:43.697Z,43.83
2022-08-28T17:54:22.881Z,43.98
2022-08-28T17:56:51.449Z,43.84
2022-08-28T17:59:19.811Z,43.90
2022-08-28T18:01:47.443Z,44.00
2022-08-28T18:04:21.623Z,44.47
2022-08-28T18:06:52.820Z,44.48
2022-08-28T18:09:20.311Z,44.25
2022-08-28T18:11:47.638Z,44.12
2022-08-28T18:14:14.967Z,44.16
2022-08-28T18:16:42.182Z,44.57
2022-08-28T18:19:11.712Z,44.89
2022-08-28T18:21:40.019Z,45.32
2022-08-28T18:24:08.836Z,45.59
2022-08-28T18:26:35.761Z,45.69
2022-08-28T18:29:02.908Z,46.00
2022-08-28T18:31:29.805Z,46.25
2022-08-28T18:33:56.953Z,46.45
2022-08-28T18:36:24.361Z,46.30
2022-08-28T18:38:52.032Z,46.58
2022-08-28T18:41:20.527Z,47.29
2022-08-28T18:43:48.299Z,47.86
2022-08-28T18:46:15.977Z,48.14
2022-08-28T18:48:43.318Z,48.34
2022-08-28T18:51:12.333Z,48.46
2022-08-28T18:53:42.353Z,48.44
2022-08-28T18:56:12.319Z,48.50
2022-08-28T18:58:41.738Z,48.87
2022-08-28T19:01:10.046Z,48.92
2022-08-28T19:03:37.378Z,49.35
2022-08-28T19:06:06.564Z,49.52
2022-08-28T19:08:35.467Z,49.38
2022-08-28T19:11:07.887Z,49.74
2022-08-28T19:13:35.850Z,50.22
2022-08-28T19:16:03.090Z,50.46
2022-08-28T19:18:30.251Z,50.85
2022-08-28T19:21:09.940Z,50.69
2022-08-28T19:23:49.349Z,51.02
2022-08-28T19:26:24.846Z,51.13
2022-08-28T19:28:52.281Z,51.66
2022-08-28T19:31:19.581Z,51.90
2022-08-28T19:33:47.595Z,52.59
2022-08-28T19:36:15.566Z,52.53
2022-08-28T19:38:42.578Z,52.72
2022-08-28T19:41:11.576Z,52.90
2022-08-28T19:43:42.901Z,53.21
2022-08-28T19:46:18.260Z,53.54
2022-08-28T19:48:50.459Z,53.83
2022-08-28T19:51:23.232Z,53.90
2022-08-28T19:53:58.321Z,54.05
2022-08-28T19:56:28.921Z,54.28
2022-08-28T19:59:01.815Z,54.58
2022-08-28T20:01:31.528Z,54.96
2022-08-28T20:04:00.562Z,54.76
2022-08-28T20:06:30.423Z,55.22
2022-08-28T20:08:57.220Z,55.45
2022-08-28T20:11:25.415Z,55.63
2022-08-28T20:14:04.454Z,55.62
2022-08-28T20:16:36.605Z,55.92
2022-08-28T20:19:05.464Z,56.04
2022-08-28T20:21:37.675Z,56.03
2022-08-28T20:24:07.644Z,56.54
2022-08-28T20:26:35.582Z,56.81
2022-08-28T20:29:03.402Z,56.80
2022-08-28T20:31:30.340Z,57.01
2022-08-28T20:33:57.233Z,57.05
2022-08-28T20:36:24.127Z,56.93
2022-08-28T20:38:50.963Z,57.31
2022-08-28T20:41:21.136Z,56.97
2022-08-28T20:43:48.529Z,56.87
2022-08-28T20:46:17.171Z,56.78
2022-08-28T20:48:44.710Z,57.07
2022-08-28T20:51:12.315Z,57.37
2022-08-28T20:53:40.083Z,57.21
2022-08-28T20:56:10.202Z,57.44
2022-08-28T20:58:38.050Z,57.63
2022-08-28T21:01:05.841Z,57.80
2022-08-28T21:03:32.813Z,58.41
2022-08-28T21:05:59.667Z,57.73
2022-08-28T21:08:26.513Z,57.96
2022-08-28T21:10:53.339Z,57.92
2022-08-28T21:13:20.787Z,58.00
2022-08-28T21:15:47.901Z,58.27
2022-08-28T21:18:15.329Z,58.49
2022-08-28T21:20:42.339Z,58.83
2022-08-28T21:23:10.614Z,59.02
2022-08-28T21:25:40.270Z,58.78
2022-08-28T21:28:07.497Z,58.87
2022-08-28T21:30:34.930Z,59.18
2022-08-28T21:33:02.033Z,59.28
2022-08-28T21:35:29.234Z,59.60
2022-08-28T21:37:56.047Z,59.81
2022-08-28T21:40:23.300Z,59.95
2022-08-28T21:42:50.296Z,60.01
2022-08-28T21:45:18.457Z,60.30
2022-08-28T21:47:45.274Z,60.45
2022-08-28T21:50:12.729Z,60.31
2022-08-28T21:52:40.721Z,60.43
2022-08-28T21:55:11.959Z,60.54
2022-08-28T21:57:39.470Z,60.65
2022-08-28T22:00:12.630Z,60.25
2022-08-28T22:02:39.686Z,60.19
2022-08-28T22:05:06.735Z,59.94
2022-08-28T22:07:33.594Z,60.69
2022-08-28T22:10:00.441Z,60.67
2022-08-28T22:12:27.412Z,60.97
2022-08-28T22:14:57.628Z,60.98
2022-08-28T22:17:24.419Z,60.88
2022-08-28T22:19:51.670Z,61.11
2022-08-28T22:22:37.645Z,61.21
2022-08-28T22:25:05.536Z,60.76
2022-08-28T22:27:33.087Z,60.90
2022-08-28T22:30:00.135Z,60.83
2022-08-28T22:32:28.016Z,60.72
2022-08-28T22:34:55.959Z,60.53
2022-08-28T22:37:23.477Z,60.61
2022-08-28T22:39:50.504Z,60.38
2022-08-28T22:42:18.178Z,60.52
2022-08-28T22:44:46.780Z,60.25
2022-08-28T22:47:13.798Z,60.16
2022-08-28T22:49:40.668Z,60.01
2022-08-28T22:52:11.156Z,60.00
2022-08-28T22:54:38.401Z,59.98
2022-08-28T22:57:06.039Z,60.01
2022-08-28T22:59:34.785Z,60.32
2022-08-28T23:02:03.881Z,60.58
2022-08-28T23:04:31.339Z,60.32
2022-08-28T23:06:58.160Z,60.66
2022-08-28T23:09:24.996Z,60.65
2022-08-28T23:11:52.193Z,61.05
2022-08-28T23:14:19.456Z,61.34
2022-08-28T23:16:46.771Z,61.69
2022-08-28T23:19:16.596Z,61.72
2022-08-28T23:21:44.581Z,61.84
2022-08-28T23:24:14.398Z,62.03
2022-08-28T23:26:41.747Z,62.24
2022-08-28T23:29:10.167Z,62.25
2022-08-28T23:31:37.991Z,62.54
2022-08-28T23:34:05.731Z,62.74
2022-08-28T23:36:35.361Z,62.55
2022-08-28T23:39:02.895Z,62.95
2022-08-28T23:41:31.198Z,62.79
2022-08-28T23:43:58.036Z,62.81
2022-08-28T23:46:25.099Z,62.68
2022-08-28T23:48:52.622Z,62.84
2022-08-28T23:51:20.052Z,63.01
2022-08-28T23:53:47.668Z,63.54
2022-08-28T23:56:15.043Z,63.55
2022-08-28T23:58:44.668Z,63.65
